Dades meteomassalio
Diari Summary for Noviembre 7, 2017 Units:  Metric    English   Both
« Previous Day
Next Day »
Diari Semanal Mensual Anual Personalitzat
  Maxima: Minima: Mijana:
Temperatura: -17.8 °C -17.4 °C -12.9 °C
Rosada: -17.8 °C -23.8 °C -18.9 °C
Humitat: Humidity % 22 % 49 %
Velocitat del vent: 0 km/h 0 km/h 39.3 km/h
Racha vent: 0 km/h - -
Vent:- - SW
Pressio: 0 hPa 34533.8 hPa -
Pluja: 0 mm    
Historical Graphs
 
 
Tabular Data for Noviembre 7, 2017
Time Temperature Dew Point Pressure Wind Wind Speed Wind Gust Humidity Rainfall Rate (Hourly) solar Conditions
-17.8 °C -17.8 °C 0 hPa Calm     Humidity % 0 mm SolarRadiationWatts/m^2 W/m2 Conditions
00:04 -14.1 °C -17 °C 34591.4 hPa SW 38.8 km/h 38.8 km/h 69 % 0 mm 0.0 W/m2 CLR
00:09 -14.1 °C -17 °C 34591.4 hPa WSW 50.7 km/h 50.7 km/h 69 % 0 mm 0.0 W/m2 CLR
00:14 -14.1 °C -17 °C 34591.4 hPa SW 50.7 km/h 50.7 km/h 69 % 0 mm 0.0 W/m2 CLR
00:19 -14.1 °C -17 °C 34591.4 hPa SW 47.6 km/h 47.6 km/h 69 % 0 mm 0.0 W/m2 CLR
00:24 -14.1 °C -17 °C 34591.4 hPa SSW 44.7 km/h 44.7 km/h 69 % 0 mm 0.0 W/m2 CLR
00:29 -14.1 °C -17 °C 34591.4 hPa WSW 50.7 km/h 50.7 km/h 69 % 0 mm 0.0 W/m2 CLR
00:34 -14.1 °C -16.9 °C 34591.4 hPa SSW 41.7 km/h 41.7 km/h 70 % 0 mm 0.0 W/m2 CLR
00:39 -14.1 °C -16.9 °C 34591.4 hPa SW 38.8 km/h 38.8 km/h 70 % 0 mm 0.0 W/m2 CLR
00:44 -14.1 °C -16.9 °C 34591.4 hPa SSW 44.7 km/h 44.7 km/h 70 % 0 mm 0.0 W/m2 CLR
00:49 -14.1 °C -16.8 °C 34591.4 hPa SSW 41.7 km/h 41.7 km/h 71 % 0 mm 0.0 W/m2 CLR
00:54 -14.1 °C -16.8 °C 34591.4 hPa SSW 50.7 km/h 50.7 km/h 71 % 0 mm 0.0 W/m2 CLR
00:59 -14.4 °C -17.1 °C 34591.4 hPa SW 38.8 km/h 38.8 km/h 71 % 0 mm 0.0 W/m2 CLR
01:04 -14.1 °C -16.8 °C 34591.4 hPa SSW 44.7 km/h 44.7 km/h 71 % 0 mm 0.0 W/m2 CLR
01:09 -14.4 °C -17.1 °C 34591.4 hPa SSW 41.4 km/h 41.4 km/h 71 % 0 mm 0.0 W/m2 CLR
01:14 -14.4 °C -17.2 °C 34591.4 hPa SSW 41.4 km/h 41.4 km/h 70 % 0 mm 0.0 W/m2 CLR
01:19 -14.4 °C -17.2 °C 34591.4 hPa SW 50.7 km/h 50.7 km/h 70 % 0 mm 0.0 W/m2 CLR
01:24 -14.1 °C -16.9 °C 34591.4 hPa SSW 38.8 km/h 38.8 km/h 70 % 0 mm 0.0 W/m2 CLR
01:29 -14.4 °C -17.2 °C 34591.4 hPa WSW 29.8 km/h 29.8 km/h 70 % 0 mm 0.0 W/m2 CLR
01:34 -14.4 °C -17.2 °C 34591.4 hPa SSW 35.7 km/h 35.7 km/h 70 % 0 mm 0.0 W/m2 CLR
01:39 -14.4 °C -17.2 °C 34591.4 hPa SW 36.2 km/h 36.2 km/h 70 % 0 mm 0.0 W/m2 CLR
01:44 -14.4 °C -17.2 °C 34591.4 hPa SSW 29.8 km/h 29.8 km/h 70 % 0 mm 0.0 W/m2 CLR
01:49 -14.4 °C -17.3 °C 34591.4 hPa SW 32.8 km/h 32.8 km/h 69 % 0 mm 0.0 W/m2 CLR
01:54 -14.4 °C -17.3 °C 34591.4 hPa SW 41.7 km/h 41.7 km/h 69 % 0 mm 0.0 W/m2 CLR
01:59 -14.7 °C -17.6 °C 34591.4 hPa SSW 29.8 km/h 29.8 km/h 69 % 0 mm 0.0 W/m2 CLR
02:04 -14.7 °C -17.6 °C 34591.4 hPa SSW 32.8 km/h 32.8 km/h 69 % 0 mm 0.0 W/m2 CLR
02:14 -14.4 °C -17.3 °C 34591.4 hPa WSW 26.9 km/h 26.9 km/h 69 % 0 mm 0.0 W/m2 CLR
02:19 -14.4 °C -17.3 °C 34591.4 hPa SSW 32.8 km/h 32.8 km/h 69 % 0 mm 0.0 W/m2 CLR
02:24 -14.4 °C -17.3 °C 34591.4 hPa SSW 29.8 km/h 29.8 km/h 69 % 0 mm 0.0 W/m2 CLR
02:29 -14.4 °C -17.4 °C 34591.4 hPa SSW 35.7 km/h 35.7 km/h 68 % 0 mm 0.0 W/m2 CLR
02:34 -14.7 °C -17.7 °C 34591.4 hPa SSW 41.7 km/h 41.7 km/h 68 % 0 mm 0.0 W/m2 CLR
02:39 -14.7 °C -17.8 °C 34591.4 hPa SSW 38.8 km/h 38.8 km/h 67 % 0 mm 0.0 W/m2 CLR
02:44 -14.7 °C -17.8 °C 34591.4 hPa SSW 47.6 km/h 47.6 km/h 67 % 0 mm 0.0 W/m2 CLR
02:49 -14.7 °C -17.9 °C 34601.5 hPa SW 38.8 km/h 38.8 km/h 66 % 0 mm 0.0 W/m2 CLR
02:54 -14.7 °C -17.9 °C 34591.4 hPa SW 33.6 km/h 33.6 km/h 66 % 0 mm 0.0 W/m2 CLR
02:59 -14.7 °C -17.9 °C 34601.5 hPa SW 36.2 km/h 36.2 km/h 66 % 0 mm 0.0 W/m2 CLR
03:04 -14.7 °C -17.9 °C 34591.4 hPa South 36.2 km/h 36.2 km/h 66 % 0 mm 0.0 W/m2 CLR
03:09 -14.7 °C -18.1 °C 34591.4 hPa SW 35.7 km/h 35.7 km/h 65 % 0 mm 0.0 W/m2 CLR
03:14 -14.7 °C -18.1 °C 34591.4 hPa SSW 35.7 km/h 35.7 km/h 65 % 0 mm 0.0 W/m2 CLR
03:19 -14.7 °C -18.1 °C 34591.4 hPa SSW 44.7 km/h 44.7 km/h 65 % 0 mm 0.0 W/m2 CLR
03:24 -14.7 °C -18.1 °C 34591.4 hPa South 35.7 km/h 35.7 km/h 65 % 0 mm 0.0 W/m2 CLR
03:29 -14.7 °C -18.1 °C 34591.4 hPa SW 47.6 km/h 47.6 km/h 65 % 0 mm 0.0 W/m2 CLR
03:34 -14.7 °C -18.2 °C 34591.4 hPa SSW 29.8 km/h 29.8 km/h 64 % 0 mm 0.0 W/m2 CLR
03:39 -14.7 °C -18.2 °C 34591.4 hPa SSW 35.7 km/h 35.7 km/h 64 % 0 mm 0.0 W/m2 CLR
03:44 -15 °C -18.5 °C 34591.4 hPa SSW 29.8 km/h 29.8 km/h 64 % 0 mm 0.0 W/m2 CLR
03:49 -15 °C -18.5 °C 34591.4 hPa SSW 26.9 km/h 26.9 km/h 64 % 0 mm 0.0 W/m2 CLR
03:54 -15 °C -18.5 °C 34591.4 hPa SSE 26.9 km/h 26.9 km/h 64 % 0 mm 0.0 W/m2 CLR
03:59 -15.3 °C -18.8 °C 34591.4 hPa SSW 23.8 km/h 23.8 km/h 64 % 0 mm 0.0 W/m2 CLR
04:04 -15.3 °C -18.8 °C 34591.4 hPa SSW 23.8 km/h 23.8 km/h 64 % 0 mm 0.0 W/m2 CLR
04:09 -15.6 °C -19.1 °C 34591.4 hPa South 29.8 km/h 29.8 km/h 64 % 0 mm 0.0 W/m2 CLR
04:14 -15.6 °C -18.9 °C 34591.4 hPa South 29.8 km/h 29.8 km/h 65 % 0 mm 0.0 W/m2 CLR
04:19 -15.6 °C -18.9 °C 34591.4 hPa South 17.9 km/h 17.9 km/h 65 % 0 mm 0.0 W/m2 CLR
04:20 -15.6 °C -18.9 °C 34591.4 hPa SSW 18.2 km/h 18.2 km/h 65 % 0 mm 0.0 W/m2 CLR
04:25 -15.9 °C -19.1 °C 34591.4 hPa South 11.9 km/h 11.9 km/h 66 % 0 mm 0.0 W/m2 CLR
04:30 -16.2 °C -19.2 °C 34591.4 hPa South 20.8 km/h 20.8 km/h 68 % 0 mm 0.0 W/m2 CLR
04:35 -16.2 °C -19.2 °C 34591.4 hPa SSE 23.8 km/h 23.8 km/h 68 % 0 mm 0.0 W/m2 CLR
04:40 -16.2 °C -19.1 °C 34591.4 hPa South 17.9 km/h 17.9 km/h 69 % 0 mm 0.0 W/m2 CLR
04:45 -15.9 °C -18.7 °C 34577.8 hPa SSW 29.8 km/h 29.8 km/h 70 % 0 mm 0.0 W/m2 CLR
04:46 -15.9 °C -18.7 °C 34577.8 hPa SSW 29.8 km/h 29.8 km/h 70 % 0 mm 0.0 W/m2 CLR
04:51 -16.2 °C -19 °C 34577.8 hPa South 23.8 km/h 23.8 km/h 70 % 0 mm 0.0 W/m2 CLR
04:56 -15.9 °C -18.8 °C 34591.4 hPa South 26.9 km/h 26.9 km/h 69 % 0 mm 0.0 W/m2 CLR
05:01 -15.9 °C -18.8 °C 34577.8 hPa SSE 31.1 km/h 31.1 km/h 69 % 0 mm 0.0 W/m2 CLR
05:06 -15.9 °C -18.9 °C 34591.4 hPa South 25.9 km/h 25.9 km/h 68 % 0 mm 0.0 W/m2 CLR
05:11 -15.6 °C -18.7 °C 34591.4 hPa South 23.8 km/h 23.8 km/h 67 % 0 mm 0.0 W/m2 CLR
05:16 -15.6 °C -18.8 °C 34591.4 hPa South 26.9 km/h 26.9 km/h 66 % 0 mm 0.0 W/m2 CLR
05:21 -15.6 °C -18.8 °C 34591.4 hPa SSE 26.9 km/h 26.9 km/h 66 % 0 mm 0.0 W/m2 CLR
05:26 -15.9 °C -19.1 °C 34591.4 hPa South 15.6 km/h 15.6 km/h 66 % 0 mm 0.0 W/m2 CLR
05:31 -15.9 °C -19 °C 34591.4 hPa South 29.8 km/h 29.8 km/h 67 % 0 mm 0.0 W/m2 CLR
05:36 -15.9 °C -19.3 °C 34591.4 hPa South 26.9 km/h 26.9 km/h 64 % 0 mm 0.0 W/m2 CLR
05:41 -15.9 °C -19.3 °C 34591.4 hPa South 17.9 km/h 17.9 km/h 64 % 0 mm 0.0 W/m2 CLR
05:46 -16.2 °C -19.8 °C 34591.4 hPa SSE 15 km/h 15 km/h 63 % 0 mm 0.0 W/m2 CLR
05:51 -16.6 °C -19.9 °C 34591.4 hPa Calm     64 % 0 mm 0.0 W/m2 CLR
05:56 -16.6 °C -19.9 °C 34591.4 hPa SW 17.9 km/h 17.9 km/h 64 % 0 mm 0.0 W/m2 CLR
06:01 -16.8 °C -20.3 °C 34591.4 hPa SSW 23.8 km/h 23.8 km/h 63 % 0 mm 0.0 W/m2 CLR
06:06 -17.2 °C -20.8 °C 34601.5 hPa SSW 26.9 km/h 26.9 km/h 62 % 0 mm 0.0 W/m2 CLR
06:11 -17.4 °C -21.1 °C 34601.5 hPa SSW 26.9 km/h 26.9 km/h 62 % 0 mm 0.0 W/m2 CLR
06:21 -17.4 °C -20.9 °C 34591.4 hPa South 29.8 km/h 29.8 km/h 63 % 0 mm 0.0 W/m2 CLR
06:26 -17.2 °C -20.7 °C 34591.4 hPa SSW 29.8 km/h 29.8 km/h 63 % 0 mm 0.0 W/m2 CLR
06:31 -16.8 °C -20.3 °C 34591.4 hPa SSW 26.9 km/h 26.9 km/h 63 % 0 mm 0.0 W/m2 CLR
06:36 -16.6 °C -20.1 °C 34601.5 hPa South 26.9 km/h 26.9 km/h 63 % 0 mm 0.0 W/m2 CLR
06:41 -16.2 °C -19.8 °C 34601.5 hPa SSW 26.9 km/h 26.9 km/h 63 % 0 mm 0.0 W/m2 CLR
06:46 -16.2 °C -19.8 °C 34601.5 hPa South 32.8 km/h 32.8 km/h 63 % 0 mm 0.0 W/m2 CLR
06:51 -16.2 °C -19.8 °C 34591.4 hPa South 29.8 km/h 29.8 km/h 63 % 0 mm 0.0 W/m2 CLR
06:56 -15.9 °C -19.5 °C 34601.5 hPa SSW 25.9 km/h 25.9 km/h 63 % 0 mm 0.0 W/m2 CLR
07:06 -15.9 °C -19.6 °C 34601.5 hPa SSE 23.8 km/h 23.8 km/h 62 % 0 mm 0.0 W/m2 CLR
07:11 -16.2 °C -19.9 °C 34601.5 hPa South 17.9 km/h 17.9 km/h 62 % 0 mm 0.0 W/m2 CLR
07:16 -15.9 °C -19.6 °C 34601.5 hPa SSE 23.8 km/h 23.8 km/h 62 % 0 mm 0.0 W/m2 CLR
07:21 -15.9 °C -19.6 °C 34601.5 hPa South 26.9 km/h 26.9 km/h 62 % 0 mm 0.0 W/m2 CLR
07:26 -15.9 °C -19.6 °C 34601.5 hPa South 29.8 km/h 29.8 km/h 62 % 0 mm 0.0 W/m2 CLR
07:31 -16.2 °C -19.9 °C 34601.5 hPa South 41.7 km/h 41.7 km/h 62 % 0 mm 0.0 W/m2 OVC
07:36 -15.9 °C -19.7 °C 34601.5 hPa South 32.8 km/h 32.8 km/h 61 % 0 mm 0.0 W/m2 OVC
07:41 -15.6 °C -19.4 °C 34601.5 hPa South 29.8 km/h 29.8 km/h 61 % 0 mm 5.0 W/m2 OVC
07:46 -15.6 °C -19.6 °C 34601.5 hPa SSE 23.8 km/h 23.8 km/h 60 % 0 mm 9.0 W/m2 OVC
07:51 -15.6 °C -19.6 °C 34601.5 hPa South 17.9 km/h 17.9 km/h 60 % 0 mm 11.0 W/m2 OVC
07:56 -15.6 °C -19.6 °C 34611.7 hPa South 20.9 km/h 20.9 km/h 60 % 0 mm 12.0 W/m2 OVC
08:01 -15.6 °C -19.6 °C 34611.7 hPa South 17.9 km/h 17.9 km/h 60 % 0 mm 14.0 W/m2 OVC
08:06 -15.6 °C -19.7 °C 34611.7 hPa SSE 11.9 km/h 11.9 km/h 59 % 0 mm 18.0 W/m2 OVC
08:11 -15.3 °C -19.4 °C 34611.7 hPa South 31.1 km/h 31.1 km/h 59 % 0 mm 26.0 W/m2 OVC
08:16 -15.3 °C -19.5 °C 34611.7 hPa SSE 29.8 km/h 29.8 km/h 58 % 0 mm 40.0 W/m2 OVC
08:21 -15.3 °C -19.5 °C 34625.2 hPa SSW 17.9 km/h 17.9 km/h 58 % 0 mm 51.0 W/m2 OVC
08:26 -15.6 °C -19.9 °C 34625.2 hPa South 29.8 km/h 29.8 km/h 57 % 0 mm 63.0 W/m2 OVC
08:31 -15.3 °C -19.6 °C 34625.2 hPa SSE 15 km/h 15 km/h 57 % 0 mm 76.0 W/m2 OVC
08:36 -15.3 °C -19.6 °C 34625.2 hPa South 20.9 km/h 20.9 km/h 57 % 0 mm 84.0 W/m2 OVC
08:41 -15.3 °C -19.6 °C 34625.2 hPa SSW 20.9 km/h 20.9 km/h 57 % 0 mm 100.0 W/m2 BKN
08:46 -15 °C -19.5 °C 34625.2 hPa SSW 26.9 km/h 26.9 km/h 56 % 0 mm 90.0 W/m2 FEW
08:51 -15 °C -19.6 °C 34625.2 hPa South 38.8 km/h 38.8 km/h 55 % 0 mm 107.0 W/m2 CLR
08:56 -15 °C -19.6 °C 34625.2 hPa South 32.8 km/h 32.8 km/h 55 % 0 mm 121.0 W/m2 CLR
09:01 -14.7 °C -19.3 °C 34625.2 hPa SSW 26.9 km/h 26.9 km/h 55 % 0 mm 146.0 W/m2 CLR
09:02 -14.7 °C -19.3 °C 34625.2 hPa SSW 26.9 km/h 26.9 km/h 55 % 0 mm 146.0 W/m2 CLR
09:07 -14.4 °C -19.1 °C 34625.2 hPa SSW 29.8 km/h 29.8 km/h 55 % 0 mm 172.0 W/m2 CLR
09:12 -14.4 °C -19.1 °C 34625.2 hPa South 29.8 km/h 29.8 km/h 55 % 0 mm 95.0 W/m2 CLR
09:17 -14.4 °C -19.1 °C 34625.2 hPa South 25.9 km/h 25.9 km/h 55 % 0 mm 221.0 W/m2 CLR
09:22 -14.1 °C -18.9 °C 34625.2 hPa SSW 44.1 km/h 44.1 km/h 54 % 0 mm 246.0 W/m2 CLR
09:27 -14.1 °C -18.9 °C 34625.2 hPa South 23.8 km/h 23.8 km/h 54 % 0 mm 265.0 W/m2 CLR
09:32 -14.1 °C -19 °C 34625.2 hPa SSW 47.6 km/h 47.6 km/h 53 % 0 mm 294.0 W/m2 CLR
09:37 -14.1 °C -19 °C 34625.2 hPa SW 44.7 km/h 44.7 km/h 53 % 0 mm 329.0 W/m2 CLR
09:42 -13.8 °C -18.7 °C 34625.2 hPa SW 44.7 km/h 44.7 km/h 53 % 0 mm 364.0 W/m2 CLR
09:47 -13.8 °C -19.1 °C 34625.2 hPa SSW 56.6 km/h 56.6 km/h 51 % 0 mm 401.0 W/m2 CLR
09:52 -13.4 °C -18.6 °C 34625.2 hPa SW 47.6 km/h 47.6 km/h 52 % 0 mm 320.0 W/m2 CLR
09:57 -13.4 °C -18.7 °C 34635.4 hPa SW 59.5 km/h 59.5 km/h 51 % 0 mm 246.0 W/m2 CLR
10:02 -13.4 °C -18.6 °C 34625.2 hPa South 38.8 km/h 38.8 km/h 52 % 0 mm 227.0 W/m2 CLR
10:07 -13.4 °C -18.7 °C 34625.2 hPa SW 47.6 km/h 47.6 km/h 51 % 0 mm 269.0 W/m2 CLR
10:12 -13.2 °C -18.6 °C 34625.2 hPa SSW 59.5 km/h 59.5 km/h 50 % 0 mm 334.0 W/m2 CLR
10:17 -13.2 °C -18.6 °C 34625.2 hPa SSW 41.7 km/h 41.7 km/h 50 % 0 mm 251.0 W/m2 CLR
10:22 -13.2 °C -18.4 °C 34625.2 hPa SSW 32.8 km/h 32.8 km/h 51 % 0 mm 295.0 W/m2 CLR
10:27 -13.2 °C -18.6 °C 34625.2 hPa WSW 29.8 km/h 29.8 km/h 50 % 0 mm 343.0 W/m2 CLR
10:32 -13.2 °C -18.9 °C 34635.4 hPa WSW 35.7 km/h 35.7 km/h 48 % 0 mm 461.0 W/m2 CLR
10:37 -12.8 °C -18.7 °C 34625.2 hPa SW 44.1 km/h 44.1 km/h 48 % 0 mm 237.0 W/m2 CLR
10:42 -12.8 °C -18.7 °C 34635.4 hPa SW 50.7 km/h 50.7 km/h 48 % 0 mm 190.0 W/m2 CLR
10:47 -12.8 °C -18.7 °C 34625.2 hPa SSW 32.8 km/h 32.8 km/h 48 % 0 mm 236.0 W/m2 CLR
10:52 -12.8 °C -18.8 °C 34635.4 hPa SSW 50.7 km/h 50.7 km/h 47 % 0 mm 346.0 W/m2 CLR
10:57 -12.8 °C -18.8 °C 34625.2 hPa South 50.7 km/h 50.7 km/h 47 % 0 mm 459.0 W/m2 CLR
11:02 -12.8 °C -18.8 °C 34625.2 hPa South 49.2 km/h 49.2 km/h 47 % 0 mm 295.0 W/m2 CLR
11:07 -12.6 °C -18.5 °C 34625.2 hPa South 36.2 km/h 36.2 km/h 47 % 0 mm 439.0 W/m2 CLR
11:12 -12.6 °C -18.7 °C 34625.2 hPa SW 32.8 km/h 32.8 km/h 46 % 0 mm 496.0 W/m2 CLR
11:17 -12.2 °C -18.7 °C 34625.2 hPa WSW 56.6 km/h 56.6 km/h 44 % 0 mm 517.0 W/m2 CLR
11:22 -11.9 °C -18.6 °C 34625.2 hPa SW 71.5 km/h 71.5 km/h 43 % 0 mm 517.0 W/m2 CLR
11:27 -11.9 °C -18.6 °C 34625.2 hPa SW 65.5 km/h 65.5 km/h 43 % 0 mm 454.0 W/m2 CLR
11:32 -11.9 °C -18.3 °C 34625.2 hPa SW 68.6 km/h 68.6 km/h 45 % 0 mm 519.0 W/m2 CLR
11:37 -11.9 °C -18.3 °C 34625.2 hPa SSW 56.6 km/h 56.6 km/h 45 % 0 mm 552.0 W/m2 CLR
11:42 -11.9 °C -18.1 °C 34625.2 hPa SSW 47.6 km/h 47.6 km/h 46 % 0 mm 485.0 W/m2 CLR
11:47 -11.9 °C -18.1 °C 34611.7 hPa SW 65.5 km/h 65.5 km/h 46 % 0 mm 388.0 W/m2 CLR
11:52 -11.9 °C -18.1 °C 34611.7 hPa SW 38.8 km/h 38.8 km/h 46 % 0 mm 403.0 W/m2 CLR
11:57 -11.6 °C -17.8 °C 34611.7 hPa South 50.7 km/h 50.7 km/h 46 % 0 mm 527.0 W/m2 CLR
12:02 -11.6 °C -17.7 °C 34611.7 hPa SW 29.8 km/h 29.8 km/h 47 % 0 mm 540.0 W/m2 CLR
12:07 -11.3 °C -17.7 °C 34611.7 hPa SSW 50.7 km/h 50.7 km/h 45 % 0 mm 536.0 W/m2 CLR
12:12 -11.3 °C -17.7 °C 34601.5 hPa SSW 47.6 km/h 47.6 km/h 45 % 0 mm 536.0 W/m2 CLR
12:17 -11.3 °C -17.7 °C 34601.5 hPa SW 53.6 km/h 53.6 km/h 45 % 0 mm 543.0 W/m2 CLR
12:22 -11.3 °C -17.9 °C 34601.5 hPa SW 56.6 km/h 56.6 km/h 44 % 0 mm 545.0 W/m2 CLR
12:27 -11 °C -17.8 °C 34591.4 hPa SW 46.7 km/h 46.7 km/h 43 % 0 mm 547.0 W/m2 CLR
12:32 -11 °C -17.6 °C 34591.4 hPa WSW 67.3 km/h 67.3 km/h 44 % 0 mm 548.0 W/m2 CLR
12:37 -11 °C -17.6 °C 34591.4 hPa WSW 53.6 km/h 53.6 km/h 44 % 0 mm 548.0 W/m2 CLR
12:42 -10.7 °C -17.3 °C 34591.4 hPa WSW 53.6 km/h 53.6 km/h 44 % 0 mm 550.0 W/m2 CLR
12:47 -10.7 °C -17.3 °C 34577.8 hPa SW 38.8 km/h 38.8 km/h 44 % 0 mm 550.0 W/m2 CLR
12:52 -10.4 °C -17.1 °C 34577.8 hPa SSW 35.7 km/h 35.7 km/h 44 % 0 mm 548.0 W/m2 CLR
12:57 -10.4 °C -17.4 °C 34577.8 hPa WSW 50.7 km/h 50.7 km/h 42 % 0 mm 548.0 W/m2 CLR
13:07 -10.4 °C -17.9 °C 34567.7 hPa SW 53.6 km/h 53.6 km/h 39 % 0 mm 547.0 W/m2 CLR
13:12 -10.1 °C -17.9 °C 34567.7 hPa WSW 44.7 km/h 44.7 km/h 38 % 0 mm 543.0 W/m2 CLR
13:17 -10.1 °C -17.9 °C 34567.7 hPa SW 38.8 km/h 38.8 km/h 38 % 0 mm 541.0 W/m2 CLR
13:22 -9.8 °C -18 °C 34567.7 hPa West 64.7 km/h 64.7 km/h 36 % 0 mm 541.0 W/m2 CLR
13:27 -9.8 °C -18 °C 34567.7 hPa SSW 41.7 km/h 41.7 km/h 36 % 0 mm 534.0 W/m2 CLR
13:32 -9.8 °C -18.4 °C 34554.1 hPa SW 50.7 km/h 50.7 km/h 34 % 0 mm 531.0 W/m2 CLR
13:37 -9.8 °C -18.2 °C 34554.1 hPa SW 53.6 km/h 53.6 km/h 35 % 0 mm 529.0 W/m2 CLR
13:42 -9.8 °C -18 °C 34554.1 hPa SSW 44.7 km/h 44.7 km/h 36 % 0 mm 526.0 W/m2 CLR
13:47 -9.8 °C -18 °C 34554.1 hPa SW 38.8 km/h 38.8 km/h 36 % 0 mm 520.0 W/m2 CLR
13:52 -9.4 °C -17.9 °C 34544 hPa SSW 47.6 km/h 47.6 km/h 35 % 0 mm 515.0 W/m2 CLR
13:57 -9.8 °C -18.2 °C 34544 hPa SSW 41.7 km/h 41.7 km/h 35 % 0 mm 508.0 W/m2 CLR
14:02 -9.4 °C -18.2 °C 34554.1 hPa SW 68.6 km/h 68.6 km/h 34 % 0 mm 504.0 W/m2 CLR
14:07 -9.4 °C -18.2 °C 34544 hPa SW 44.7 km/h 44.7 km/h 34 % 0 mm 499.0 W/m2 CLR
14:12 -9.4 °C -18.4 °C 34544 hPa WSW 51.8 km/h 51.8 km/h 33 % 0 mm 490.0 W/m2 CLR
14:17 -9.4 °C -18.7 °C 34544 hPa SSW 47.6 km/h 47.6 km/h 32 % 0 mm 485.0 W/m2 CLR
14:18 -9.4 °C -18.7 °C 34544 hPa WSW 50.7 km/h 50.7 km/h 32 % 0 mm 483.0 W/m2 CLR
14:23 -9.1 °C -19.1 °C 34544 hPa SSW 62.6 km/h 62.6 km/h 29 % 0 mm 475.0 W/m2 CLR
14:28 -9.1 °C -19.4 °C 34544 hPa SW 41.7 km/h 41.7 km/h 28 % 0 mm 468.0 W/m2 CLR
14:33 -9.1 °C -19.1 °C 34544 hPa WSW 41.4 km/h 41.4 km/h 29 % 0 mm 461.0 W/m2 CLR
14:38 -9.1 °C -19.7 °C 34544 hPa SSW 38.8 km/h 38.8 km/h 27 % 0 mm 452.0 W/m2 CLR
14:43 -9.1 °C -19.4 °C 34533.8 hPa WSW 50.7 km/h 50.7 km/h 28 % 0 mm 443.0 W/m2 CLR
14:48 -9.1 °C -19.4 °C 34533.8 hPa SW 50.7 km/h 50.7 km/h 28 % 0 mm 434.0 W/m2 CLR
14:50 -9.1 °C -19.7 °C 34533.8 hPa SW 44.7 km/h 44.7 km/h 27 % 0 mm 427.0 W/m2 CLR
14:55 -9.1 °C -19.7 °C 34533.8 hPa SW 53.6 km/h 53.6 km/h 27 % 0 mm 420.0 W/m2 CLR
15:00 -9.4 °C -19.9 °C 34533.8 hPa SW 44.7 km/h 44.7 km/h 27 % 0 mm 410.0 W/m2 CLR
15:05 -9.1 °C -19.9 °C 34533.8 hPa WSW 44.7 km/h 44.7 km/h 26 % 0 mm 401.0 W/m2 CLR
15:15 -9.1 °C -20.2 °C 34533.8 hPa SW 56.6 km/h 56.6 km/h 25 % 0 mm 380.0 W/m2 CLR
15:20 -9.1 °C -20.5 °C 34533.8 hPa SSW 47.6 km/h 47.6 km/h 24 % 0 mm 369.0 W/m2 CLR
15:25 -9.1 °C -20.5 °C 34533.8 hPa SW 38.8 km/h 38.8 km/h 24 % 0 mm 359.0 W/m2 CLR
15:30 -9.1 °C -20.5 °C 34533.8 hPa West 44.7 km/h 44.7 km/h 24 % 0 mm 346.0 W/m2 CLR
15:35 -9.1 °C -20.5 °C 34533.8 hPa West 64.7 km/h 64.7 km/h 24 % 0 mm 338.0 W/m2 CLR
15:40 -9.1 °C -20.9 °C 34533.8 hPa SSW 50.7 km/h 50.7 km/h 23 % 0 mm 320.0 W/m2 CLR
15:45 -9.1 °C -20.9 °C 34533.8 hPa WSW 41.7 km/h 41.7 km/h 23 % 0 mm 309.0 W/m2 CLR
15:50 -9.1 °C -20.9 °C 34533.8 hPa SW 53.6 km/h 53.6 km/h 23 % 0 mm 297.0 W/m2 CLR
15:55 -9.1 °C -21.2 °C 34533.8 hPa SSW 38.8 km/h 38.8 km/h 22 % 0 mm 283.0 W/m2 CLR
16:00 -9.1 °C -21.2 °C 34533.8 hPa SW 29.8 km/h 29.8 km/h 22 % 0 mm 267.0 W/m2 CLR
16:05 -9.4 °C -21.1 °C 34533.8 hPa SW 29.8 km/h 29.8 km/h 23 % 0 mm 251.0 W/m2 CLR
16:10 -9.4 °C -20.2 °C 34533.8 hPa SW 31.1 km/h 31.1 km/h 26 % 0 mm 239.0 W/m2 CLR
16:15 -9.4 °C -20.2 °C 34533.8 hPa SW 32.8 km/h 32.8 km/h 26 % 0 mm 221.0 W/m2 CLR
16:20 -9.4 °C -20.5 °C 34533.8 hPa WSW 33.6 km/h 33.6 km/h 25 % 0 mm 206.0 W/m2 CLR
16:25 -9.8 °C -20.2 °C 34533.8 hPa WSW 35.7 km/h 35.7 km/h 27 % 0 mm 186.0 W/m2 CLR
16:30 -9.8 °C -20.2 °C 34533.8 hPa West 32.8 km/h 32.8 km/h 27 % 0 mm 167.0 W/m2 CLR
16:35 -10.1 °C -20.4 °C 34533.8 hPa WSW 44.7 km/h 44.7 km/h 27 % 0 mm 151.0 W/m2 CLR
16:40 -10.1 °C -20.2 °C 34533.8 hPa WSW 35.7 km/h 35.7 km/h 28 % 0 mm 132.0 W/m2 CLR
16:45 -10.1 °C -20.2 °C 34533.8 hPa WSW 35.7 km/h 35.7 km/h 28 % 0 mm 116.0 W/m2 CLR
16:50 -10.1 °C -20.2 °C 34533.8 hPa WSW 38.8 km/h 38.8 km/h 28 % 0 mm 102.0 W/m2 CLR
16:55 -10.4 °C -20.4 °C 34533.8 hPa WSW 38.8 km/h 38.8 km/h 28 % 0 mm 76.0 W/m2 FEW
17:00 -10.4 °C -20.4 °C 34533.8 hPa SW 47.6 km/h 47.6 km/h 28 % 0 mm 56.0 W/m2 SCT
17:05 -10.4 °C -20.2 °C 34533.8 hPa West 23.8 km/h 23.8 km/h 29 % 0 mm 54.0 W/m2 SCT
17:10 -10.7 °C -20.4 °C 34533.8 hPa SW 29.8 km/h 29.8 km/h 29 % 0 mm 44.0 W/m2 BKN
17:15 -10.7 °C -20.2 °C 34533.8 hPa WSW 26.9 km/h 26.9 km/h 30 % 0 mm 33.0 W/m2 BKN
17:20 -10.7 °C -20.4 °C 34533.8 hPa SW 28.5 km/h 28.5 km/h 29 % 0 mm 21.0 W/m2 BKN
17:25 -10.7 °C -20.2 °C 34533.8 hPa SW 23.8 km/h 23.8 km/h 30 % 0 mm 16.0 W/m2 BKN
17:30 -11 °C -20.5 °C 34533.8 hPa SW 9 km/h 9 km/h 30 % 0 mm 12.0 W/m2 BKN
17:35 -11.3 °C -20.5 °C 34533.8 hPa Calm     31 % 0 mm 11.0 W/m2 BKN
17:40 -11.9 °C -21.1 °C 34533.8 hPa Calm     31 % 0 mm 9.0 W/m2 BKN
17:45 -12.6 °C -21.6 °C 34533.8 hPa Calm     31 % 0 mm 7.0 W/m2 BKN
17:50 -12.8 °C -21.6 °C 34533.8 hPa Calm     32 % 0 mm 0.0 W/m2 OVC
17:55 -13.2 °C -21.7 °C 34533.8 hPa Calm     33 % 0 mm 0.0 W/m2 OVC
18:00 -13.4 °C -21.7 °C 34544 hPa SSW 20.9 km/h 20.9 km/h 34 % 0 mm 0.0 W/m2 CLR
18:05 -13.8 °C -22.2 °C 34544 hPa SSW 15.6 km/h 15.6 km/h 33 % 0 mm 0.0 W/m2 CLR
18:10 -14.1 °C -22.5 °C 34544 hPa South 11.9 km/h 11.9 km/h 33 % 0 mm 0.0 W/m2 CLR
18:15 -14.1 °C -22.5 °C 34544 hPa South 17.9 km/h 17.9 km/h 33 % 0 mm 0.0 W/m2 CLR
18:20 -14.4 °C -22.8 °C 34554.1 hPa South 18.2 km/h 18.2 km/h 33 % 0 mm 0.0 W/m2 CLR
18:25 -14.4 °C -22.8 °C 34554.1 hPa South 17.9 km/h 17.9 km/h 33 % 0 mm 0.0 W/m2 CLR
18:30 -14.7 °C -23.1 °C 34554.1 hPa South 15 km/h 15 km/h 33 % 0 mm 0.0 W/m2 CLR
18:35 -14.7 °C -23.1 °C 34554.1 hPa South 18.2 km/h 18.2 km/h 33 % 0 mm 0.0 W/m2 CLR
18:40 -14.7 °C -23.1 °C 34554.1 hPa South 17.9 km/h 17.9 km/h 33 % 0 mm 0.0 W/m2 CLR
18:45 -15 °C -23.3 °C 34554.1 hPa SSW 11.9 km/h 11.9 km/h 33 % 0 mm 0.0 W/m2 CLR
18:50 -15 °C -23.3 °C 34554.1 hPa SSW 23.8 km/h 23.8 km/h 33 % 0 mm 0.0 W/m2 CLR
18:55 -15.3 °C -23.6 °C 34554.1 hPa South 23.8 km/h 23.8 km/h 33 % 0 mm 0.0 W/m2 CLR
19:00 -15.3 °C -23.8 °C 34567.7 hPa South 38.8 km/h 38.8 km/h 32 % 0 mm 0.0 W/m2 CLR
19:05 -14.7 °C -23.5 °C 34567.7 hPa SSW 33.6 km/h 33.6 km/h 31 % 0 mm 0.0 W/m2 CLR
19:10 -14.1 °C -22.9 °C 34567.7 hPa SSW 35.7 km/h 35.7 km/h 31 % 0 mm 0.0 W/m2 CLR
19:16 -12.6 °C -21.3 °C 34567.7 hPa SW 38.8 km/h 38.8 km/h 32 % 0 mm 0.0 W/m2 CLR
19:21 -11.9 °C -20.4 °C 34567.7 hPa SW 44.7 km/h 44.7 km/h 34 % 0 mm 0.0 W/m2 CLR
19:25 -11.6 °C -20.1 °C 34567.7 hPa SSW 41.7 km/h 41.7 km/h 34 % 0 mm 0.0 W/m2 CLR
19:31 -11.6 °C -19.9 °C 34567.7 hPa SW 38.8 km/h 38.8 km/h 35 % 0 mm 0.0 W/m2 CLR
19:35 -11.6 °C -19.9 °C 34567.7 hPa SW 35.7 km/h 35.7 km/h 35 % 0 mm 0.0 W/m2 CLR
19:40 -11.6 °C -19.7 °C 34567.7 hPa SSW 44.7 km/h 44.7 km/h 36 % 0 mm 0.0 W/m2 CLR
19:46 -11.6 °C -19.5 °C 34567.7 hPa SW 32.8 km/h 32.8 km/h 37 % 0 mm 0.0 W/m2 CLR
19:51 -11.6 °C -19.1 °C 34554.1 hPa NW 47.6 km/h 47.6 km/h 39 % 0 mm 0.0 W/m2 CLR
19:56 -11.3 °C -18.6 °C 34554.1 hPa NW 44.7 km/h 44.7 km/h 40 % 0 mm 0.0 W/m2 CLR
20:01 -11.6 °C -18.5 °C 34567.7 hPa NW 44.7 km/h 44.7 km/h 42 % 0 mm 0.0 W/m2 CLR
20:06 -11.6 °C -18.3 °C 34567.7 hPa NNW 35.7 km/h 35.7 km/h 43 % 0 mm 0.0 W/m2 CLR
20:11 -11.6 °C -18.2 °C 34567.7 hPa NW 38.8 km/h 38.8 km/h 44 % 0 mm 0.0 W/m2 CLR
20:16 -11.6 °C -18 °C 34567.7 hPa NNW 44.7 km/h 44.7 km/h 45 % 0 mm 0.0 W/m2 CLR
20:21 -11.6 °C -18 °C 34567.7 hPa NW 50.7 km/h 50.7 km/h 45 % 0 mm 0.0 W/m2 CLR
20:26 -11.6 °C -17.8 °C 34567.7 hPa NW 35.7 km/h 35.7 km/h 46 % 0 mm 0.0 W/m2 CLR
20:31 -11.6 °C -17.8 °C 34577.8 hPa NNW 47.6 km/h 47.6 km/h 46 % 0 mm 0.0 W/m2 CLR
20:36 -11.6 °C -17.8 °C 34577.8 hPa NW 56.6 km/h 56.6 km/h 46 % 0 mm 0.0 W/m2 CLR
20:41 -11.3 °C -17.6 °C 34577.8 hPa NNW 59.5 km/h 59.5 km/h 46 % 0 mm 0.0 W/m2 CLR
20:46 -11.3 °C -17.6 °C 34577.8 hPa NNW 59.5 km/h 59.5 km/h 46 % 0 mm 0.0 W/m2 CLR
20:51 -11 °C -17.3 °C 34577.8 hPa North 56.6 km/h 56.6 km/h 46 % 0 mm 0.0 W/m2 CLR
20:56 -11.3 °C -17.7 °C 34591.4 hPa NNW 41.7 km/h 41.7 km/h 45 % 0 mm 0.0 W/m2 CLR
21:01 -11.3 °C -17.7 °C 34577.8 hPa North 51.8 km/h 51.8 km/h 45 % 0 mm 0.0 W/m2 CLR
21:06 -11.3 °C -17.7 °C 34591.4 hPa NW 50.7 km/h 50.7 km/h 45 % 0 mm 0.0 W/m2 CLR
21:11 -11.3 °C -17.7 °C 34591.4 hPa North 44.7 km/h 44.7 km/h 45 % 0 mm 0.0 W/m2 CLR
21:16 -11 °C -17.4 °C 34591.4 hPa NNW 74.5 km/h 74.5 km/h 45 % 0 mm 0.0 W/m2 CLR
21:21 -11 °C -17.4 °C 34591.4 hPa NNW 59.5 km/h 59.5 km/h 45 % 0 mm 0.0 W/m2 CLR
21:26 -11.3 °C -17.9 °C 34591.4 hPa NNW 68.6 km/h 68.6 km/h 44 % 0 mm 0.0 W/m2 CLR
21:31 -11.3 °C -17.9 °C 34591.4 hPa NNW 65.5 km/h 65.5 km/h 44 % 0 mm 0.0 W/m2 CLR
21:36 -11.3 °C -17.7 °C 34577.8 hPa NNW 59.5 km/h 59.5 km/h 45 % 0 mm 0.0 W/m2 CLR
21:41 -11.3 °C -17.7 °C 34577.8 hPa NW 59.5 km/h 59.5 km/h 45 % 0 mm 0.0 W/m2 CLR
21:46 -11.3 °C -17.6 °C 34577.8 hPa NNW 56.6 km/h 56.6 km/h 46 % 0 mm 0.0 W/m2 CLR
21:51 -11.3 °C -17.4 °C 34591.4 hPa NW 77.4 km/h 77.4 km/h 47 % 0 mm 0.0 W/m2 CLR
21:56 -11.3 °C -17.2 °C 34591.4 hPa WNW 56.6 km/h 56.6 km/h 48 % 0 mm 0.0 W/m2 CLR
22:01 -11.6 °C -17.5 °C 34591.4 hPa NW 71.5 km/h 71.5 km/h 48 % 0 mm 0.0 W/m2 CLR
22:06 -11.6 °C -17.3 °C 34591.4 hPa North 56.6 km/h 56.6 km/h 49 % 0 mm 0.0 W/m2 CLR
22:11 -11.6 °C -17.5 °C 34591.4 hPa NNW 68.6 km/h 68.6 km/h 48 % 0 mm 0.0 W/m2 CLR
22:16 -11.6 °C -17.3 °C 34577.8 hPa NW 59.5 km/h 59.5 km/h 49 % 0 mm 0.0 W/m2 CLR
22:21 -11.6 °C -17.3 °C 34591.4 hPa NW 56.6 km/h 56.6 km/h 49 % 0 mm 0.0 W/m2 CLR
22:26 -11.6 °C -17.2 °C 34591.4 hPa NW 71.5 km/h 71.5 km/h 50 % 0 mm 0.0 W/m2 CLR
22:31 -11.6 °C -17.3 °C 34591.4 hPa NW 77.4 km/h 77.4 km/h 49 % 0 mm 0.0 W/m2 CLR
22:32 -11.6 °C -17.3 °C 34591.4 hPa NW 77.4 km/h 77.4 km/h 49 % 0 mm 0.0 W/m2 CLR
22:37 -11.6 °C -17.3 °C 34591.4 hPa NW 68.6 km/h 68.6 km/h 49 % 0 mm 0.0 W/m2 CLR
22:42 -11.6 °C -17.2 °C 34591.4 hPa NW 53.6 km/h 53.6 km/h 50 % 0 mm 0.0 W/m2 CLR
22:47 -11.6 °C -17.2 °C 34591.4 hPa NW 68.6 km/h 68.6 km/h 50 % 0 mm 0.0 W/m2 CLR
22:52 -11.6 °C -17.2 °C 34591.4 hPa NW 56.6 km/h 56.6 km/h 50 % 0 mm 0.0 W/m2 CLR
22:57 -11.6 °C -17.2 °C 34591.4 hPa NW 56.6 km/h 56.6 km/h 50 % 0 mm 0.0 W/m2 CLR
23:02 -11.6 °C -17.1 °C 34591.4 hPa NNW 65.5 km/h 65.5 km/h 51 % 0 mm 0.0 W/m2 CLR
23:07 -11.6 °C -17.1 °C 34591.4 hPa NW 56.6 km/h 56.6 km/h 51 % 0 mm 0.0 W/m2 CLR
23:12 -11.6 °C -16.9 °C 34591.4 hPa NW 50.7 km/h 50.7 km/h 52 % 0 mm 0.0 W/m2 CLR
23:17 -11.6 °C -16.7 °C 34591.4 hPa NNW 56.6 km/h 56.6 km/h 53 % 0 mm 0.0 W/m2 CLR
23:22 -11.6 °C -16.6 °C 34591.4 hPa NW 57 km/h 57 km/h 54 % 0 mm 0.0 W/m2 CLR
23:27 -11.9 °C -16.7 °C 34591.4 hPa NW 50.7 km/h 50.7 km/h 55 % 0 mm 0.0 W/m2 CLR
23:32 -11.9 °C -16.7 °C 34601.5 hPa NW 50.7 km/h 50.7 km/h 55 % 0 mm 0.0 W/m2 CLR
23:37 -11.9 °C -16.7 °C 34591.4 hPa NNW 67.3 km/h 67.3 km/h 55 % 0 mm 0.0 W/m2 CLR
23:42 -11.9 °C -16.6 °C 34601.5 hPa NW 51.8 km/h 51.8 km/h 56 % 0 mm 0.0 W/m2 CLR
23:47 -11.9 °C -16.4 °C 34591.4 hPa North 59.5 km/h 59.5 km/h 57 % 0 mm 0.0 W/m2 CLR
23:52 -11.9 °C -16.4 °C 34591.4 hPa NW 47.6 km/h 47.6 km/h 57 % 0 mm 0.0 W/m2 CLR
23:57 -11.9 °C -16.4 °C 34591.4 hPa NNW 47.6 km/h 47.6 km/h 57 % 0 mm 0.0 W/m2 CLR
Lo Temps de Massalio
Compliments of Weather Underground - 1.25 mb